Airfield :
LOGIN :

Register | Disclaimer

   EN    FR    IT 

 










Legend :    VFR   Marginal VFR   IFR   Intensive IFR   Very Intensive IFR
Visi :
Ceiling :
>= 8 km
>= 3000ft
5 to 8 km
1000 to 3000 ft
1500m to 5 km
500 to 1000 ft
800 to 1500m
200 to 500 ft
< 800m
< 200 ft
Symbols :   Thunderstorms  Fog  Heavy snow  Heavy precipitations  Wind > 20 kt
SIGMETs :     Misc.  Thunderstorms  Icing  Turbulence  Mountain Waves  Volcanic Ashes







- Airport Elevation : 124 ft
- IATA code : RNS
- Download approach charts


LFRN - Rennes

CURRENT METAR :
  • 242100Z AUTO 32007KT 9999 FEW010 BKN074 BKN120 16/16 Q1016 TEMPO VRB15G30KT 2000 TSRAGR BKN005 BKN060CB

EXPIRED METARs :
  • 242030Z AUTO 03010KT 340V060 9999 FEW009 SCT078 BKN110 17/16 Q1016 TEMPO VRB15G30KT 2000 TSRAGR BKN005 BKN060CB
  • 242000Z AUTO 35007KT 9999 ///TCU 16/16 Q1016 TEMPO VRB15G30KT 2000 TSRAGR BKN005 BKN060CB
  • 241930Z AUTO 31011KT 9999 -RA BKN008/// BKN036/// BKN056/// ///TCU 17/16 Q1016 TEMPO VRB15G30KT 2000 TSRAGR BKN005 BKN060CB
  • 241900Z AUTO 33008KT 9999 -RA FEW007/// BKN084/// OVC100/// ///TCU 17/17 Q1016 TEMPO VRB15G30KT 2000 TSRAGR BKN005 BKN060CB
  • 241830Z AUTO 32010KT 9999 -RA SCT010/// SCT029/// BKN074/// ///TCU 18/17 Q1017 TEMPO VRB15G30KT 2000 TSRAGR BKN005 BKN060CB

TAF TAF LFRN
Valid from the 24 at 18:00 until the 25 at 18:00 UTC


241700Z 2418/2518 34007KT 9999 SCT030
TEMPO 2418/2507 4000 SHRA BKN008 BKN060TCU
PROB40
TEMPO 2418/2503 VRB15G30KT 2000 TSRAGR BKN005 BKN060CB
TEMPO 2507/2510 BKN008
ATIS : +33 2 99 67 72 50
No reported NOTAMs for that airfield.
2 SIGMETs reported for the Brest FIR (LFRR) :
 
Embedded thunderstorms and hail
LFRR SIGMET 8 VALID 242300/250300 LFPW
LFRR BREST FIR/UIR EMBD TSGR FCST WI N5000 W00215 - N5000 W00200 - N5000 W00015 - N4830 W00015 - N4830 W00145 - N5000 W00215 TOP FL380 MOV NE 20KT NC=
Embedded thunderstorms and hail
LFRR SIGMET 7 VALID 241900/242300 LFPW
LFRR BREST FIR/UIR EMBD TSGR FCST WI N4915 W00015 - N4715 W00015 - N4815 W00145 - N4915 W00015 TOP FL360 MOV N 20KT INTSF=



MET'MAP, your aeronautical weather chart ! - Copyright ORBIFLY December 2007 - Disclaimer

ORBIFLY MET'MAP TEAM :

Programming & Development : Alexandra Zaïnal
Concept & Development : Baudouin d'Aumeries
Co-Development & Prog : Marc-Olivier Méhu
Technical & hardware support : Manuel Goepfert

Contact : metmap@orbifly.com




SOURCES & CREDITS :

   NOAA